Terminal Aerodrome Forecast
Issued by NWS

Home | Current Version | Previous Version | Text Only | Print | Product List | Glossary On
Versions: 1 2 3 4 5 6 7 8 9 10 11 12 13 14 15 16 17 18 19 20 21
000
FTUS43 KDLH 021430 AAC
TAFHYR
TAF AMD
KHYR 021430Z 0215/0312 VRB04KT P6SM VCSH SCT006 BKN015
     FM021530 VRB04KT P6SM VCTS SCT020 BKN040CB OVC080
     FM021800 33007KT P6SM VCSH SCT030 BKN040
     FM030300 00000KT P6SM SCT050=

USA.gov is the U.S. government's official web portal to all federal, state and local government web resources and services.